sensor_id;sensor_type;location;lat;lon;timestamp;pressure;altitude;pressure_sealevel;temperature;humidity
60974;BME280;46846;51.528;5.076;2023-05-23T00:00:24;101390.31;;;18.71;57.23
60974;BME280;46846;51.528;5.076;2023-05-23T00:02:50;101390.09;;;18.75;57.02
60974;BME280;46846;51.528;5.076;2023-05-23T00:05:15;101383.94;;;18.72;57.29
60974;BME280;46846;51.528;5.076;2023-05-23T00:07:43;101383.06;;;18.72;57.18
60974;BME280;46846;51.528;5.076;2023-05-23T00:10:09;101385.69;;;18.74;57.13
60974;BME280;46846;51.528;5.076;2023-05-23T00:12:34;101379.53;;;18.71;56.98
60974;BME280;46846;51.528;5.076;2023-05-23T00:15:02;101378.72;;;18.69;56.31
60974;BME280;46846;51.528;5.076;2023-05-23T00:17:27;101375.06;;;18.70;56.69
60974;BME280;46846;51.528;5.076;2023-05-23T00:19:53;101386.69;;;18.56;57.17
60974;BME280;46846;51.528;5.076;2023-05-23T00:22:20;101387.13;;;18.49;57.44
60974;BME280;46846;51.528;5.076;2023-05-23T00:24:46;101399.56;;;18.51;56.92
60974;BME280;46846;51.528;5.076;2023-05-23T00:27:11;101395.59;;;18.42;57.53
60974;BME280;46846;51.528;5.076;2023-05-23T00:29:37;101396.38;;;18.44;57.16
60974;BME280;46846;51.528;5.076;2023-05-23T00:32:02;101392.22;;;18.39;57.40
60974;BME280;46846;51.528;5.076;2023-05-23T00:34:27;101406.47;;;18.41;57.11
60974;BME280;46846;51.528;5.076;2023-05-23T00:36:53;101407.59;;;18.37;57.40
60974;BME280;46846;51.528;5.076;2023-05-23T00:39:18;101402.66;;;18.29;57.42
60974;BME280;46846;51.528;5.076;2023-05-23T00:41:50;101411.59;;;18.29;57.18
60974;BME280;46846;51.528;5.076;2023-05-23T00:44:16;101405.34;;;18.29;57.08
60974;BME280;46846;51.528;5.076;2023-05-23T00:46:43;101415.72;;;18.21;57.31
60974;BME280;46846;51.528;5.076;2023-05-23T00:49:10;101418.66;;;18.16;57.61
60974;BME280;46846;51.528;5.076;2023-05-23T00:51:37;101419.88;;;18.10;57.58
60974;BME280;46846;51.528;5.076;2023-05-23T00:54:04;101419.59;;;17.99;57.81
60974;BME280;46846;51.528;5.076;2023-05-23T00:56:31;101433.22;;;17.96;57.92
60974;BME280;46846;51.528;5.076;2023-05-23T00:58:57;101432.28;;;17.97;57.82
60974;BME280;46846;51.528;5.076;2023-05-23T01:01:24;101427.47;;;18.02;57.53
60974;BME280;46846;51.528;5.076;2023-05-23T01:03:50;101429.41;;;18.00;57.30
60974;BME280;46846;51.528;5.076;2023-05-23T01:06:15;101426.78;;;17.98;57.38
60974;BME280;46846;51.528;5.076;2023-05-23T01:08:41;101427.25;;;17.90;57.67
60974;BME280;46846;51.528;5.076;2023-05-23T01:11:17;101432.78;;;17.87;57.72
60974;BME280;46846;51.528;5.076;2023-05-23T01:13:55;101430.78;;;17.91;57.50
60974;BME280;46846;51.528;5.076;2023-05-23T01:16:34;101437.19;;;17.88;57.41
60974;BME280;46846;51.528;5.076;2023-05-23T01:19:12;101436.59;;;17.83;57.54
60974;BME280;46846;51.528;5.076;2023-05-23T01:21:43;101437.38;;;17.85;57.55
60974;BME280;46846;51.528;5.076;2023-05-23T01:29:28;101441.19;;;17.81;57.48
60974;BME280;46846;51.528;5.076;2023-05-23T01:31:57;101436.00;;;17.78;57.33
60974;BME280;46846;51.528;5.076;2023-05-23T01:34:24;101446.75;;;17.78;57.45
60974;BME280;46846;51.528;5.076;2023-05-23T01:36:53;101439.13;;;17.70;57.37
60974;BME280;46846;51.528;5.076;2023-05-23T01:39:19;101437.72;;;17.63;57.66
60974;BME280;46846;51.528;5.076;2023-05-23T01:41:45;101444.13;;;17.60;57.77
60974;BME280;46846;51.528;5.076;2023-05-23T01:44:11;101456.19;;;17.53;58.20
60974;BME280;46846;51.528;5.076;2023-05-23T01:46:37;101448.72;;;17.58;57.77
60974;BME280;46846;51.528;5.076;2023-05-23T01:49:05;101446.00;;;17.58;57.68
60974;BME280;46846;51.528;5.076;2023-05-23T01:51:32;101444.97;;;17.61;57.49
60974;BME280;46846;51.528;5.076;2023-05-23T01:53:59;101453.31;;;17.56;57.59
60974;BME280;46846;51.528;5.076;2023-05-23T01:56:26;101448.81;;;17.57;57.52
60974;BME280;46846;51.528;5.076;2023-05-23T01:58:52;101446.97;;;17.57;57.52
60974;BME280;46846;51.528;5.076;2023-05-23T02:01:18;101443.50;;;17.55;57.23
60974;BME280;46846;51.528;5.076;2023-05-23T02:03:44;101453.56;;;17.52;57.35
60974;BME280;46846;51.528;5.076;2023-05-23T02:06:09;101450.94;;;17.50;57.35
60974;BME280;46846;51.528;5.076;2023-05-23T02:08:35;101452.78;;;17.49;57.42
60974;BME280;46846;51.528;5.076;2023-05-23T02:11:00;101463.63;;;17.48;57.43
60974;BME280;46846;51.528;5.076;2023-05-23T02:13:26;101466.09;;;17.35;57.71
60974;BME280;46846;51.528;5.076;2023-05-23T02:15:51;101463.00;;;17.43;57.59
60974;BME280;46846;51.528;5.076;2023-05-23T02:18:16;101470.22;;;17.42;57.53
60974;BME280;46846;51.528;5.076;2023-05-23T02:20:42;101470.28;;;17.41;57.55
60974;BME280;46846;51.528;5.076;2023-05-23T02:23:08;101473.16;;;17.38;57.45
60974;BME280;46846;51.528;5.076;2023-05-23T02:25:34;101479.63;;;17.33;57.61
60974;BME280;46846;51.528;5.076;2023-05-23T02:28:00;101489.69;;;17.30;57.60
60974;BME280;46846;51.528;5.076;2023-05-23T02:30:25;101479.63;;;17.33;57.59
60974;BME280;46846;51.528;5.076;2023-05-23T02:32:50;101479.94;;;17.27;57.71
60974;BME280;46846;51.528;5.076;2023-05-23T02:35:16;101483.78;;;17.23;57.60
60974;BME280;46846;51.528;5.076;2023-05-23T02:37:41;101476.78;;;17.19;57.92
60974;BME280;46846;51.528;5.076;2023-05-23T02:40:07;101476.09;;;17.15;57.93
60974;BME280;46846;51.528;5.076;2023-05-23T02:42:33;101478.38;;;17.05;58.02
60974;BME280;46846;51.528;5.076;2023-05-23T02:44:58;101476.31;;;17.11;57.96
60974;BME280;46846;51.528;5.076;2023-05-23T02:47:24;101480.94;;;17.08;57.86
60974;BME280;46846;51.528;5.076;2023-05-23T02:49:49;101486.13;;;17.12;57.62
60974;BME280;46846;51.528;5.076;2023-05-23T02:52:15;101473.72;;;17.09;57.64
60974;BME280;46846;51.528;5.076;2023-05-23T02:54:41;101471.19;;;17.06;57.77
60974;BME280;46846;51.528;5.076;2023-05-23T02:57:06;101472.34;;;17.00;57.95
60974;BME280;46846;51.528;5.076;2023-05-23T02:59:32;101468.84;;;16.98;58.06
60974;BME280;46846;51.528;5.076;2023-05-23T03:01:58;101477.09;;;16.95;57.87
60974;BME280;46846;51.528;5.076;2023-05-23T03:04:23;101477.97;;;16.95;57.93
60974;BME280;46846;51.528;5.076;2023-05-23T03:06:50;101472.44;;;16.99;57.80
60974;BME280;46846;51.528;5.076;2023-05-23T03:09:18;101479.06;;;16.91;57.97
60974;BME280;46846;51.528;5.076;2023-05-23T03:11:44;101472.81;;;16.91;57.64
60974;BME280;46846;51.528;5.076;2023-05-23T03:14:10;101478.91;;;16.94;57.83
60974;BME280;46846;51.528;5.076;2023-05-23T03:16:36;101475.19;;;16.97;57.63
60974;BME280;46846;51.528;5.076;2023-05-23T03:19:01;101481.69;;;16.93;57.53
60974;BME280;46846;51.528;5.076;2023-05-23T03:21:27;101476.44;;;16.90;57.81
60974;BME280;46846;51.528;5.076;2023-05-23T03:23:52;101478.53;;;16.85;58.00
60974;BME280;46846;51.528;5.076;2023-05-23T03:26:18;101473.75;;;16.90;57.61
60974;BME280;46846;51.528;5.076;2023-05-23T03:28:43;101484.81;;;16.84;57.82
60974;BME280;46846;51.528;5.076;2023-05-23T03:31:08;101482.78;;;16.89;57.81
60974;BME280;46846;51.528;5.076;2023-05-23T03:33:34;101486.72;;;16.81;57.64
60974;BME280;46846;51.528;5.076;2023-05-23T03:35:59;101487.03;;;16.75;57.98
60974;BME280;46846;51.528;5.076;2023-05-23T03:38:26;101487.03;;;16.75;57.85
60974;BME280;46846;51.528;5.076;2023-05-23T03:40:51;101487.59;;;16.82;57.64
60974;BME280;46846;51.528;5.076;2023-05-23T03:43:17;101488.75;;;16.76;57.82
60974;BME280;46846;51.528;5.076;2023-05-23T03:45:42;101489.88;;;16.72;57.90
60974;BME280;46846;51.528;5.076;2023-05-23T03:48:07;101488.94;;;16.73;57.89
60974;BME280;46846;51.528;5.076;2023-05-23T03:50:33;101495.25;;;16.72;57.86
60974;BME280;46846;51.528;5.076;2023-05-23T03:52:58;101499.75;;;16.72;57.80
60974;BME280;46846;51.528;5.076;2023-05-23T03:55:24;101493.66;;;16.68;58.00
60974;BME280;46846;51.528;5.076;2023-05-23T03:57:50;101490.00;;;16.69;58.00
60974;BME280;46846;51.528;5.076;2023-05-23T04:00:16;101496.75;;;16.60;58.02
60974;BME280;46846;51.528;5.076;2023-05-23T04:02:43;101491.44;;;16.59;58.19
60974;BME280;46846;51.528;5.076;2023-05-23T04:05:10;101504.94;;;16.57;58.01
60974;BME280;46846;51.528;5.076;2023-05-23T04:07:36;101509.28;;;16.60;57.95
60974;BME280;46846;51.528;5.076;2023-05-23T04:10:02;101514.41;;;16.47;58.21
60974;BME280;46846;51.528;5.076;2023-05-23T04:12:28;101513.88;;;16.58;58.00
60974;BME280;46846;51.528;5.076;2023-05-23T04:14:55;101511.53;;;16.50;57.95
60974;BME280;46846;51.528;5.076;2023-05-23T04:17:22;101516.38;;;16.43;58.30
60974;BME280;46846;51.528;5.076;2023-05-23T04:19:48;101519.13;;;16.42;58.19
60974;BME280;46846;51.528;5.076;2023-05-23T04:22:13;101514.75;;;16.39;58.61
60974;BME280;46846;51.528;5.076;2023-05-23T04:24:39;101529.44;;;16.32;58.49
60974;BME280;46846;51.528;5.076;2023-05-23T04:27:05;101521.91;;;16.40;58.36
60974;BME280;46846;51.528;5.076;2023-05-23T04:29:31;101520.50;;;16.31;58.49
60974;BME280;46846;51.528;5.076;2023-05-23T04:31:58;101529.53;;;16.30;58.66
60974;BME280;46846;51.528;5.076;2023-05-23T04:34:23;101525.00;;;16.31;58.73
60974;BME280;46846;51.528;5.076;2023-05-23T04:36:48;101525.88;;;16.31;58.38
60974;BME280;46846;51.528;5.076;2023-05-23T04:39:14;101535.91;;;16.27;58.67
60974;BME280;46846;51.528;5.076;2023-05-23T04:41:41;101542.34;;;16.23;58.42
60974;BME280;46846;51.528;5.076;2023-05-23T04:44:09;101539.75;;;16.22;58.56
60974;BME280;46846;51.528;5.076;2023-05-23T04:46:35;101535.69;;;16.13;58.47
60974;BME280;46846;51.528;5.076;2023-05-23T04:49:01;101545.47;;;16.14;58.70
60974;BME280;46846;51.528;5.076;2023-05-23T04:51:28;101541.00;;;16.15;58.67
60974;BME280;46846;51.528;5.076;2023-05-23T04:53:53;101546.56;;;16.10;58.64
60974;BME280;46846;51.528;5.076;2023-05-23T04:56:19;101546.56;;;16.10;58.71
60974;BME280;46846;51.528;5.076;2023-05-23T04:58:45;101554.47;;;16.13;58.75
60974;BME280;46846;51.528;5.076;2023-05-23T05:01:11;101557.22;;;16.11;58.64
60974;BME280;46846;51.528;5.076;2023-05-23T05:03:38;101552.06;;;16.07;58.66
60974;BME280;46846;51.528;5.076;2023-05-23T05:06:03;101554.53;;;16.11;58.46
60974;BME280;46846;51.528;5.076;2023-05-23T05:08:30;101562.88;;;16.05;58.40
60974;BME280;46846;51.528;5.076;2023-05-23T05:10:56;101558.31;;;16.07;58.39
60974;BME280;46846;51.528;5.076;2023-05-23T05:13:21;101556.66;;;16.05;58.35
60974;BME280;46846;51.528;5.076;2023-05-23T05:15:47;101564.03;;;15.99;58.63
60974;BME280;46846;51.528;5.076;2023-05-23T05:18:12;101565.78;;;16.01;58.49
60974;BME280;46846;51.528;5.076;2023-05-23T05:20:38;101565.66;;;16.04;58.24
60974;BME280;46846;51.528;5.076;2023-05-23T05:23:03;101577.19;;;16.06;58.08
60974;BME280;46846;51.528;5.076;2023-05-23T05:25:28;101567.00;;;15.93;58.49
60974;BME280;46846;51.528;5.076;2023-05-23T05:27:59;101578.53;;;15.95;58.69
60974;BME280;46846;51.528;5.076;2023-05-23T05:30:26;101571.34;;;15.96;58.17
60974;BME280;46846;51.528;5.076;2023-05-23T05:32:51;101594.09;;;15.87;58.38
60974;BME280;46846;51.528;5.076;2023-05-23T05:35:17;101590.22;;;15.74;59.11
60974;BME280;46846;51.528;5.076;2023-05-23T05:37:42;101594.75;;;15.71;58.97
60974;BME280;46846;51.528;5.076;2023-05-23T05:40:08;101596.53;;;15.72;58.94
60974;BME280;46846;51.528;5.076;2023-05-23T05:42:34;101605.69;;;15.67;59.09
60974;BME280;46846;51.528;5.076;2023-05-23T05:44:59;101606.63;;;15.66;58.90
60974;BME280;46846;51.528;5.076;2023-05-23T05:47:25;101606.97;;;15.58;59.28
60974;BME280;46846;51.528;5.076;2023-05-23T05:49:51;101609.66;;;15.58;58.99
60974;BME280;46846;51.528;5.076;2023-05-23T05:52:16;101614.72;;;15.64;58.88
60974;BME280;46846;51.528;5.076;2023-05-23T05:54:42;101618.75;;;15.54;59.02
60974;BME280;46846;51.528;5.076;2023-05-23T05:57:07;101609.25;;;15.67;58.33
60974;BME280;46846;51.528;5.076;2023-05-23T05:59:32;101625.28;;;15.48;58.16
60974;BME280;46846;51.528;5.076;2023-05-23T06:01:58;101622.66;;;15.47;58.11
60974;BME280;46846;51.528;5.076;2023-05-23T06:04:23;101628.75;;;15.50;57.74
60974;BME280;46846;51.528;5.076;2023-05-23T06:06:49;101631.03;;;15.39;58.53
60974;BME280;46846;51.528;5.076;2023-05-23T06:09:15;101632.03;;;15.36;58.60
60974;BME280;46846;51.528;5.076;2023-05-23T06:11:40;101633.63;;;15.40;58.57
60974;BME280;46846;51.528;5.076;2023-05-23T06:14:06;101632.69;;;15.41;58.80
60974;BME280;46846;51.528;5.076;2023-05-23T06:16:32;101634.78;;;15.35;58.86
60974;BME280;46846;51.528;5.076;2023-05-23T06:18:57;101637.66;;;15.30;59.11
60974;BME280;46846;51.528;5.076;2023-05-23T06:21:23;101632.28;;;15.30;58.94
60974;BME280;46846;51.528;5.076;2023-05-23T06:23:48;101637.75;;;15.27;58.88
60974;BME280;46846;51.528;5.076;2023-05-23T06:26:14;101640.81;;;15.17;59.09
60974;BME280;46846;51.528;5.076;2023-05-23T06:28:39;101648.38;;;15.30;58.36
60974;BME280;46846;51.528;5.076;2023-05-23T06:31:05;101635.06;;;15.27;58.70
60974;BME280;46846;51.528;5.076;2023-05-23T06:33:31;101639.53;;;15.28;58.67
60974;BME280;46846;51.528;5.076;2023-05-23T06:35:56;101652.25;;;15.23;58.95
60974;BME280;46846;51.528;5.076;2023-05-23T06:38:22;101646.06;;;15.21;59.03
60974;BME280;46846;51.528;5.076;2023-05-23T06:40:47;101647.03;;;15.20;58.83
60974;BME280;46846;51.528;5.076;2023-05-23T06:43:13;101647.03;;;15.20;58.69
60974;BME280;46846;51.528;5.076;2023-05-23T06:45:38;101648.63;;;15.24;58.22
60974;BME280;46846;51.528;5.076;2023-05-23T06:48:04;101651.34;;;15.22;57.77
60974;BME280;46846;51.528;5.076;2023-05-23T06:50:30;101661.59;;;15.12;58.34
60974;BME280;46846;51.528;5.076;2023-05-23T06:52:55;101654.47;;;15.11;58.33
60974;BME280;46846;51.528;5.076;2023-05-23T06:55:22;101660.03;;;15.07;58.17
60974;BME280;46846;51.528;5.076;2023-05-23T06:57:47;101664.53;;;15.06;58.25
60974;BME280;46846;51.528;5.076;2023-05-23T07:00:16;101659.59;;;15.17;57.58
60974;BME280;46846;51.528;5.076;2023-05-23T07:02:42;101667.56;;;15.19;57.78
60974;BME280;46846;51.528;5.076;2023-05-23T07:05:09;101676.50;;;15.20;58.07
60974;BME280;46846;51.528;5.076;2023-05-23T07:07:35;101681.78;;;15.21;57.78
60974;BME280;46846;51.528;5.076;2023-05-23T07:10:00;101678.06;;;15.25;57.11
60974;BME280;46846;51.528;5.076;2023-05-23T07:12:25;101680.09;;;15.18;57.86
60974;BME280;46846;51.528;5.076;2023-05-23T07:14:51;101688.22;;;15.17;57.63
60974;BME280;46846;51.528;5.076;2023-05-23T07:17:16;101683.97;;;15.11;57.98
60974;BME280;46846;51.528;5.076;2023-05-23T07:19:41;101685.97;;;15.06;58.06
60974;BME280;46846;51.528;5.076;2023-05-23T07:22:07;101696.56;;;15.09;58.00
60974;BME280;46846;51.528;5.076;2023-05-23T07:24:32;101698.38;;;15.09;57.72
60974;BME280;46846;51.528;5.076;2023-05-23T07:26:58;101696.47;;;15.12;57.70
60974;BME280;46846;51.528;5.076;2023-05-23T07:29:23;101695.38;;;15.16;57.83
60974;BME280;46846;51.528;5.076;2023-05-23T07:31:48;101696.31;;;15.15;57.46
60974;BME280;46846;51.528;5.076;2023-05-23T07:34:14;101700.88;;;15.13;57.41
60974;BME280;46846;51.528;5.076;2023-05-23T07:36:39;101698.13;;;15.15;57.55
60974;BME280;46846;51.528;5.076;2023-05-23T07:39:06;101703.56;;;15.13;57.79
60974;BME280;46846;51.528;5.076;2023-05-23T07:41:32;101710.94;;;15.07;57.90
60974;BME280;46846;51.528;5.076;2023-05-23T07:43:57;101714.38;;;15.10;57.84
60974;BME280;46846;51.528;5.076;2023-05-23T07:46:23;101709.97;;;15.09;57.66
60974;BME280;46846;51.528;5.076;2023-05-23T07:48:48;101711.09;;;15.03;57.71
60974;BME280;46846;51.528;5.076;2023-05-23T07:51:13;101713.59;;;15.08;57.88
60974;BME280;46846;51.528;5.076;2023-05-23T07:53:39;101719.75;;;15.10;57.70
60974;BME280;46846;51.528;5.076;2023-05-23T07:56:05;101721.50;;;15.11;57.65
60974;BME280;46846;51.528;5.076;2023-05-23T07:58:31;101724.59;;;15.00;58.03
60974;BME280;46846;51.528;5.076;2023-05-23T08:00:56;101721.50;;;15.11;57.86
60974;BME280;46846;51.528;5.076;2023-05-23T08:03:22;101720.44;;;15.15;57.50
60974;BME280;46846;51.528;5.076;2023-05-23T08:05:47;101723.13;;;15.15;57.33
60974;BME280;46846;51.528;5.076;2023-05-23T08:08:14;101724.13;;;15.13;57.43
60974;BME280;46846;51.528;5.076;2023-05-23T08:10:39;101726.00;;;15.11;57.57
60974;BME280;46846;51.528;5.076;2023-05-23T08:13:05;101725.84;;;15.14;57.69
60974;BME280;46846;51.528;5.076;2023-05-23T08:15:31;101723.94;;;15.17;57.13
60974;BME280;46846;51.528;5.076;2023-05-23T08:17:58;101735.22;;;15.03;57.43
60974;BME280;46846;51.528;5.076;2023-05-23T08:20:25;101743.31;;;15.02;57.69
60974;BME280;46846;51.528;5.076;2023-05-23T08:22:57;101736.25;;;14.99;57.71
60974;BME280;46846;51.528;5.076;2023-05-23T08:25:22;101727.34;;;14.99;57.68
60974;BME280;46846;51.528;5.076;2023-05-23T08:27:49;101731.41;;;15.09;57.58
60974;BME280;46846;51.528;5.076;2023-05-23T08:30:15;101724.44;;;15.05;57.88
60974;BME280;46846;51.528;5.076;2023-05-23T08:32:40;101733.50;;;15.01;57.94
60974;BME280;46846;51.528;5.076;2023-05-23T08:35:06;101727.13;;;15.05;57.04
60974;BME280;46846;51.528;5.076;2023-05-23T08:37:32;101719.97;;;15.04;57.68
60974;BME280;46846;51.528;5.076;2023-05-23T08:39:57;101726.84;;;15.11;57.65
60974;BME280;46846;51.528;5.076;2023-05-23T08:42:22;101726.03;;;15.09;57.83
60974;BME280;46846;51.528;5.076;2023-05-23T08:44:48;101745.88;;;15.05;57.65
60974;BME280;46846;51.528;5.076;2023-05-23T08:47:15;101739.25;;;15.14;57.54
60974;BME280;46846;51.528;5.076;2023-05-23T08:49:42;101748.28;;;15.11;57.61
60974;BME280;46846;51.528;5.076;2023-05-23T08:52:11;101742.94;;;15.11;57.50
60974;BME280;46846;51.528;5.076;2023-05-23T08:54:37;101751.09;;;15.08;57.58
60974;BME280;46846;51.528;5.076;2023-05-23T08:57:03;101749.19;;;15.12;57.13
60974;BME280;46846;51.528;5.076;2023-05-23T08:59:29;101748.00;;;15.19;56.99
60974;BME280;46846;51.528;5.076;2023-05-23T09:01:57;101749.03;;;15.15;57.49
60974;BME280;46846;51.528;5.076;2023-05-23T09:04:22;101746.31;;;15.16;57.70
60974;BME280;46846;51.528;5.076;2023-05-23T09:06:48;101750.69;;;15.19;57.40
60974;BME280;46846;51.528;5.076;2023-05-23T09:09:13;101740.84;;;15.20;57.43
60974;BME280;46846;51.528;5.076;2023-05-23T09:11:40;101744.38;;;15.20;57.64
60974;BME280;46846;51.528;5.076;2023-05-23T09:14:05;101748.91;;;15.20;57.39
60974;BME280;46846;51.528;5.076;2023-05-23T09:16:33;101756.25;;;15.14;57.77
60974;BME280;46846;51.528;5.076;2023-05-23T09:19:11;101750.97;;;15.11;57.54
60974;BME280;46846;51.528;5.076;2023-05-23T09:21:42;101757.94;;;15.17;57.67
60974;BME280;46846;51.528;5.076;2023-05-23T09:24:07;101754.25;;;15.20;57.71
60974;BME280;46846;51.528;5.076;2023-05-23T09:26:33;101756.94;;;15.20;57.04
60974;BME280;46846;51.528;5.076;2023-05-23T09:28:59;101758.69;;;15.21;57.34
60974;BME280;46846;51.528;5.076;2023-05-23T09:31:28;101753.00;;;15.28;56.80
60974;BME280;46846;51.528;5.076;2023-05-23T09:33:57;101753.00;;;15.28;57.04
60974;BME280;46846;51.528;5.076;2023-05-23T09:36:22;101754.19;;;15.21;57.65
60974;BME280;46846;51.528;5.076;2023-05-23T09:38:48;101767.72;;;15.18;57.28
60974;BME280;46846;51.528;5.076;2023-05-23T09:41:13;101753.56;;;15.14;56.67
60974;BME280;46846;51.528;5.076;2023-05-23T09:43:48;101763.34;;;15.15;57.54
60974;BME280;46846;51.528;5.076;2023-05-23T09:46:14;101753.41;;;15.17;57.19
60974;BME280;46846;51.528;5.076;2023-05-23T09:48:45;101755.88;;;15.24;57.03
60974;BME280;46846;51.528;5.076;2023-05-23T09:51:11;101763.72;;;15.28;56.26
60974;BME280;46846;51.528;5.076;2023-05-23T09:53:37;101760.94;;;15.31;56.69
60974;BME280;46846;51.528;5.076;2023-05-23T09:56:02;101755.56;;;15.31;56.00
60974;BME280;46846;51.528;5.076;2023-05-23T09:58:29;101760.84;;;15.33;57.01
60974;BME280;46846;51.528;5.076;2023-05-23T10:00:55;101762.88;;;15.28;57.29
60974;BME280;46846;51.528;5.076;2023-05-23T10:03:26;101755.38;;;15.36;56.96
60974;BME280;46846;51.528;5.076;2023-05-23T10:05:56;101766.13;;;15.36;56.94
60974;BME280;46846;51.528;5.076;2023-05-23T10:08:45;101769.59;;;15.38;56.98
60974;BME280;46846;51.528;5.076;2023-05-23T10:13:46;101761.41;;;15.41;57.06
60974;BME280;46846;51.528;5.076;2023-05-23T10:16:32;101759.38;;;15.48;56.84
60974;BME280;46846;51.528;5.076;2023-05-23T10:19:12;101764.59;;;15.51;56.54
60974;BME280;46846;51.528;5.076;2023-05-23T10:21:48;101754.53;;;15.58;56.41
60974;BME280;46846;51.528;5.076;2023-05-23T10:24:14;101757.94;;;15.62;55.74
60974;BME280;46846;51.528;5.076;2023-05-23T10:26:40;101769.59;;;15.61;56.47
60974;BME280;46846;51.528;5.076;2023-05-23T10:29:06;101768.53;;;15.65;56.76
60974;BME280;46846;51.528;5.076;2023-05-23T10:31:32;101774.66;;;15.68;56.40
60974;BME280;46846;51.528;5.076;2023-05-23T10:34:13;101764.47;;;15.77;56.24
60974;BME280;46846;51.528;5.076;2023-05-23T10:36:47;101766.03;;;15.82;55.76
60974;BME280;46846;51.528;5.076;2023-05-23T10:42:41;101756.75;;;15.91;55.20
60974;BME280;46846;51.528;5.076;2023-05-23T10:45:16;101758.25;;;15.98;56.50
60974;BME280;46846;51.528;5.076;2023-05-23T10:47:42;101760.25;;;15.93;56.59
60974;BME280;46846;51.528;5.076;2023-05-23T10:50:11;101762.81;;;15.96;53.90
60974;BME280;46846;51.528;5.076;2023-05-23T10:52:38;101761.72;;;16.01;55.88
60974;BME280;46846;51.528;5.076;2023-05-23T10:55:14;101763.34;;;16.05;56.27
60974;BME280;46846;51.528;5.076;2023-05-23T10:57:42;101769.41;;;16.10;56.23
60974;BME280;46846;51.528;5.076;2023-05-23T11:00:13;101764.69;;;16.15;56.53
60974;BME280;46846;51.528;5.076;2023-05-23T11:02:52;101768.06;;;16.20;56.37
60974;BME280;46846;51.528;5.076;2023-05-23T11:05:22;101765.31;;;16.22;56.79
60974;BME280;46846;51.528;5.076;2023-05-23T11:08:08;101754.16;;;16.31;55.56
60974;BME280;46846;51.528;5.076;2023-05-23T11:10:59;101764.69;;;16.36;55.85
60974;BME280;46846;51.528;5.076;2023-05-23T11:13:57;101765.16;;;16.46;56.11
60974;BME280;46846;51.528;5.076;2023-05-23T11:16:31;101751.53;;;16.50;54.45
60974;BME280;46846;51.528;5.076;2023-05-23T11:21:58;101756.91;;;16.50;56.14
60974;BME280;46846;51.528;5.076;2023-05-23T11:24:53;101764.97;;;16.50;56.22
60974;BME280;46846;51.528;5.076;2023-05-23T11:27:31;101770.91;;;16.57;52.29
60974;BME280;46846;51.528;5.076;2023-05-23T11:30:10;101771.38;;;16.67;55.62
60974;BME280;46846;51.528;5.076;2023-05-23T11:32:37;101772.00;;;16.74;53.42
60974;BME280;46846;51.528;5.076;2023-05-23T11:35:05;101765.47;;;16.79;53.64
60974;BME280;46846;51.528;5.076;2023-05-23T11:37:31;101765.09;;;16.87;50.17
60974;BME280;46846;51.528;5.076;2023-05-23T11:39:57;101763.94;;;16.93;54.85
60974;BME280;46846;51.528;5.076;2023-05-23T11:42:22;101767.38;;;16.97;55.42
60974;BME280;46846;51.528;5.076;2023-05-23T11:44:52;101765.47;;;16.99;54.75
60974;BME280;46846;51.528;5.076;2023-05-23T11:47:18;101776.81;;;17.05;55.18
60974;BME280;46846;51.528;5.076;2023-05-23T11:49:45;101760.69;;;17.05;55.19
60974;BME280;46846;51.528;5.076;2023-05-23T11:52:11;101773.00;;;17.11;54.74
60974;BME280;46846;51.528;5.076;2023-05-23T11:54:39;101765.72;;;17.13;54.77
60974;BME280;46846;51.528;5.076;2023-05-23T11:57:06;101758.50;;;17.14;52.51
60974;BME280;46846;51.528;5.076;2023-05-23T11:59:32;101764.50;;;17.20;54.28
60974;BME280;46846;51.528;5.076;2023-05-23T12:01:58;101759.91;;;17.22;55.18
60974;BME280;46846;51.528;5.076;2023-05-23T12:04:24;101761.56;;;17.25;54.92
60974;BME280;46846;51.528;5.076;2023-05-23T12:06:50;101774.28;;;17.21;55.41
60974;BME280;46846;51.528;5.076;2023-05-23T12:09:16;101783.09;;;17.25;55.70
60974;BME280;46846;51.528;5.076;2023-05-23T12:11:42;101775.53;;;17.33;50.94
60974;BME280;46846;51.528;5.076;2023-05-23T12:14:13;101785.03;;;17.41;54.33
60974;BME280;46846;51.528;5.076;2023-05-23T12:16:39;101790.38;;;17.42;55.37
60974;BME280;46846;51.528;5.076;2023-05-23T12:19:07;101779.31;;;17.48;53.61
60974;BME280;46846;51.528;5.076;2023-05-23T12:24:12;101775.72;;;17.48;54.73
60974;BME280;46846;51.528;5.076;2023-05-23T12:26:48;101774.66;;;17.52;55.11
60974;BME280;46846;51.528;5.076;2023-05-23T12:29:14;101783.81;;;17.48;55.46
60974;BME280;46846;51.528;5.076;2023-05-23T12:31:40;101787.44;;;17.47;55.40
60974;BME280;46846;51.528;5.076;2023-05-23T12:34:06;101792.53;;;17.53;48.18
60974;BME280;46846;51.528;5.076;2023-05-23T12:36:33;101786.84;;;17.59;53.81
60974;BME280;46846;51.528;5.076;2023-05-23T12:39:03;101794.84;;;17.61;54.16
60974;BME280;46846;51.528;5.076;2023-05-23T12:41:29;101790.88;;;17.68;53.76
60974;BME280;46846;51.528;5.076;2023-05-23T12:43:55;101792.56;;;17.71;54.62
60974;BME280;46846;51.528;5.076;2023-05-23T12:46:23;101797.00;;;17.72;52.81
60974;BME280;46846;51.528;5.076;2023-05-23T12:48:49;101796.88;;;17.75;53.50
60974;BME280;46846;51.528;5.076;2023-05-23T12:51:15;101796.69;;;17.78;53.80
60974;BME280;46846;51.528;5.076;2023-05-23T12:53:41;101789.41;;;17.80;50.21
60974;BME280;46846;51.528;5.076;2023-05-23T12:56:07;101793.53;;;17.87;52.98
60974;BME280;46846;51.528;5.076;2023-05-23T12:58:33;101794.50;;;17.86;51.40
60974;BME280;46846;51.528;5.076;2023-05-23T13:01:00;101802.63;;;17.85;53.39
60974;BME280;46846;51.528;5.076;2023-05-23T13:03:27;101796.00;;;17.92;52.86
60974;BME280;46846;51.528;5.076;2023-05-23T13:05:53;101798.69;;;17.92;53.37